Mount Victoria, Maryland
Current Conditions -  °F | °C
As of 6:39 PM on Saturday 25 Oct 2014 (Local Time) from K2W6 Reporting Station
Clear Clear  
Wind Chill: 63°   Ceiling: Unl
Heat Index: 63°   Visibility: 10mi
Dew Point: 43°   Wind: 5mph
Humidity: 48%   Direction: 220°SW
Pressure: 29.78"   Gusts: NA
Location:  38.35°N, 76.9°W
Report Text: K2W6 252239Z AUTO 22004KT 10SM CLR 17/06 A2978 RMK AO1
Loading
Personal Weather Stations






























Interactive Weather Map
Tropical Storm Tracking
New forecast layout! Learn more

10-Day Weather Forecast

Advertisements
Track Severe Weather on mobile